Terminal Aerodrome Forecast
Issued by NWS Albany, NY

Home | Current Version | Previous Version | Text Only | Print | Product List | Glossary On
Versions: 1 2 3 4 5 6 7 8 9 10 11 12 13 14 15 16 17
000
FTUS41 KALY 160814 AAB
TAFGFL
TAF AMD
KGFL 160814Z 1608/1706 VRB03KT 6SM BR VCSH FEW009 BKN035
      WS020/26030KT
      TEMPO 1608/1611 3SM BR BKN009
     FM161300 22007KT P6SM BKN070
     FM161900 27010G15KT P6SM VCSH BKN040
     FM162300 29006KT P6SM FEW040
     FM170400 VRB03KT P6SM SKC=

USA.gov is the U.S. government's official web portal to all federal, state and local government web resources and services.